Time;durP1;ratioP1;P1;durP2;ratioP2;P2;SDS_P1;SDS_P2;PMS_P1;PMS_P2;Temp;Humidity;BMP_temperature;BMP_pressure;BME280_temperature;BME280_humidity;BME280_pressure;Samples;Min_cycle;Max_cycle;Signal;HPM_P1;HPM_P2
2023/10/03 00:00:24;;;;;;;7.33;3.87;;;;;;;16.44;60.39;97955.78;5043827;28;20636;-75
2023/10/03 00:02:55;;;;;;;7.07;4.57;;;;;;;16.46;60.24;97962.63;5029983;28;20297;-80
2023/10/03 00:05:24;;;;;;;7.20;4.33;;;;;;;16.57;60.05;97956.84;5028155;28;20222;-79
2023/10/03 00:07:52;;;;;;;8.03;4.50;;;;;;;16.62;60.08;97973.97;5029436;28;20645;-82
2023/10/03 00:10:19;;;;;;;9.83;4.57;;;;;;;16.75;59.76;97974.13;5047609;28;20759;-85
2023/10/03 00:12:51;;;;;;;10.97;4.40;;;;;;;16.47;59.59;97973.91;5047698;28;20205;-81
2023/10/03 00:15:24;;;;;;;8.47;4.40;;;;;;;15.76;61.68;97975.97;5054403;28;20193;-84
2023/10/03 00:17:54;;;;;;;8.63;4.27;;;;;;;15.73;61.84;97975.25;5053554;28;20233;-77
2023/10/03 00:20:22;;;;;;;8.37;4.50;;;;;;;15.71;61.45;97977.97;5055222;28;20236;-81
2023/10/03 00:22:51;;;;;;;6.13;4.17;;;;;;;15.46;61.93;97983.59;5047554;28;20194;-73
2023/10/03 00:25:19;;;;;;;9.13;4.27;;;;;;;15.11;61.96;97957.50;5048951;28;20226;-81
2023/10/03 00:27:52;;;;;;;6.97;4.50;;;;;;;15.07;62.68;97974.22;5048170;28;20210;-84
2023/10/03 00:30:20;;;;;;;8.07;4.50;;;;;;;14.74;63.47;97955.81;5047624;28;20574;-78
2023/10/03 00:32:57;;;;;;;11.17;4.60;;;;;;;15.04;62.60;97967.41;5047798;28;20213;-78
2023/10/03 00:35:26;;;;;;;8.80;4.03;;;;;;;14.91;63.14;97970.66;5047059;28;20770;-75
2023/10/03 00:37:54;;;;;;;8.83;4.77;;;;;;;14.97;63.03;97959.94;5049092;28;20213;-83
2023/10/03 00:42:57;;;;;;;9.37;4.40;;;;;;;15.28;62.03;97970.56;5048985;28;20248;-82
2023/10/03 00:45:29;;;;;;;8.97;4.17;;;;;;;15.17;61.56;97933.72;5047899;28;20239;-81
2023/10/03 00:47:59;;;;;;;9.83;4.30;;;;;;;15.68;60.65;97957.25;5047423;28;20198;-82
2023/10/03 00:50:34;;;;;;;7.50;4.00;;;;;;;15.70;60.11;97963.22;5048387;28;20205;-82
2023/10/03 00:53:10;;;;;;;8.07;4.17;;;;;;;15.61;60.20;97963.69;5046947;28;20425;-83
2023/10/03 00:55:39;;;;;;;6.67;4.10;;;;;;;15.60;60.19;97956.75;5048324;28;20190;-76
2023/10/03 01:00:42;;;;;;;7.57;4.10;;;;;;;15.86;59.42;97953.66;5047243;28;20210;-83
2023/10/03 01:03:28;;;;;;;9.97;4.13;;;;;;;15.80;59.35;97959.22;5048421;28;20238;-82
2023/10/03 01:06:10;;;;;;;5.47;3.53;;;;;;;15.79;58.98;97960.13;5046548;28;20665;-79
2023/10/03 01:09:00;;;;;;;7.13;3.90;;;;;;;15.92;59.02;97961.19;5046932;28;20206;-84
2023/10/03 01:12:21;;;;;;;6.20;3.30;;;;;;;15.91;59.50;97958.66;5048082;28;20186;-81
2023/10/03 01:15:43;;;;;;;9.03;5.30;;;;;;;15.97;58.96;97972.22;5046123;28;20204;-82
2023/10/03 01:19:29;;;;;;;14.03;6.10;;;;;;;16.04;58.71;97965.75;5045838;28;20230;-82
2023/10/03 01:22:11;;;;;;;8.10;4.20;;;;;;;16.07;58.38;97968.19;5045208;28;20197;-83
2023/10/03 01:24:38;;;;;;;12.50;7.10;;;;;;;15.83;58.84;97972.09;5047903;28;20218;-77
2023/10/03 01:27:05;;;;;;;10.23;5.83;;;;;;;15.37;60.89;97972.72;5046009;28;20190;-81
2023/10/03 01:29:32;;;;;;;7.50;4.60;;;;;;;15.30;60.22;97966.97;5039172;28;20252;-75
2023/10/03 01:31:59;;;;;;;8.67;4.17;;;;;;;14.96;61.88;97971.31;5026821;28;20203;-82
2023/10/03 01:34:26;;;;;;;10.23;4.80;;;;;;;15.10;61.48;97968.88;5026697;28;20198;-82
2023/10/03 01:36:54;;;;;;;9.10;4.17;;;;;;;15.16;61.37;97968.56;5025729;28;20202;-86
2023/10/03 01:39:21;;;;;;;6.97;4.60;;;;;;;15.08;62.04;97965.50;5026186;28;20287;-83
2023/10/03 01:41:48;;;;;;;7.87;4.20;;;;;;;15.21;61.21;97961.34;5025872;28;20194;-83
2023/10/03 01:44:16;;;;;;;9.47;4.77;;;;;;;15.40;60.89;97969.94;5026163;28;20226;-83
2023/10/03 01:46:44;;;;;;;7.67;4.83;;;;;;;15.23;61.55;97964.72;5027768;28;20265;-82
2023/10/03 01:49:14;;;;;;;8.20;5.00;;;;;;;15.34;61.90;97962.44;5026533;28;20217;-81
2023/10/03 01:51:41;;;;;;;9.37;5.17;;;;;;;15.53;61.66;97963.25;5027934;28;20600;-75
2023/10/03 01:54:09;;;;;;;8.03;5.73;;;;;;;15.56;62.10;97957.84;5026766;28;20194;-75
2023/10/03 01:56:36;;;;;;;9.03;5.00;;;;;;;15.63;61.24;97959.22;5025845;28;20195;-74
2023/10/03 01:59:04;;;;;;;9.10;5.53;;;;;;;15.02;62.44;97960.56;5026386;28;20226;-74
2023/10/03 02:01:35;;;;;;;9.30;5.30;;;;;;;14.68;63.42;97951.75;5024967;28;20286;-74
2023/10/03 02:04:02;;;;;;;9.10;5.33;;;;;;;14.11;65.33;97962.25;5027787;28;20230;-77
2023/10/03 02:06:29;;;;;;;11.07;4.90;;;;;;;14.13;65.43;97960.41;5025883;28;20199;-74
2023/10/03 02:08:58;;;;;;;14.40;5.57;;;;;;;13.75;67.18;97956.91;5028261;28;20206;-74
2023/10/03 02:11:27;;;;;;;11.00;5.90;;;;;;;13.73;67.79;97947.47;5030242;28;20264;-75
2023/10/03 02:13:54;;;;;;;8.77;5.27;;;;;;;13.44;68.19;97929.66;5030263;28;20629;-74
2023/10/03 02:16:22;;;;;;;8.70;5.93;;;;;;;13.77;68.46;97952.47;5041759;28;20201;-74
2023/10/03 02:18:49;;;;;;;11.70;5.60;;;;;;;13.71;69.42;97954.50;5036027;28;20287;-73
2023/10/03 02:21:17;;;;;;;9.40;5.17;;;;;;;13.96;67.58;97949.91;5047371;28;20603;-72
2023/10/03 02:23:44;;;;;;;10.43;5.23;;;;;;;14.32;67.26;97943.03;5045715;28;20202;-75
2023/10/03 02:26:11;;;;;;;9.20;5.17;;;;;;;14.63;65.63;97953.72;5028097;28;20683;-73
2023/10/03 02:28:41;;;;;;;12.27;4.70;;;;;;;14.89;65.35;97962.06;5026107;28;20208;-73
2023/10/03 02:31:08;;;;;;;9.60;5.00;;;;;;;14.89;64.65;97957.72;5027274;28;20637;-81
2023/10/03 02:33:44;;;;;;;9.53;4.57;;;;;;;14.71;64.99;97950.78;5027228;28;20206;-81
2023/10/03 02:36:15;;;;;;;8.70;4.70;;;;;;;14.67;65.68;97946.63;5024323;28;20580;-83
2023/10/03 02:38:43;;;;;;;8.83;4.87;;;;;;;14.61;65.67;97954.75;5009755;28;20662;-82
2023/10/03 02:41:12;;;;;;;7.97;5.00;;;;;;;14.83;65.35;97957.16;5025920;28;20222;-79
2023/10/03 02:43:46;;;;;;;8.43;4.90;;;;;;;14.74;64.77;97960.19;5026035;28;20253;-84
2023/10/03 02:46:26;;;;;;;8.00;5.07;;;;;;;14.90;64.20;97971.59;5025797;28;20205;-81
2023/10/03 02:48:55;;;;;;;15.83;4.77;;;;;;;14.93;64.62;97971.44;5024902;28;20640;-83
2023/10/03 02:51:23;;;;;;;10.50;4.73;;;;;;;14.90;63.95;97966.38;5026215;28;20684;-82
2023/10/03 02:53:51;;;;;;;8.13;4.57;;;;;;;14.17;63.81;97875.16;5028227;28;20199;-83
2023/10/03 02:56:18;;;;;;;13.77;5.13;;;;;;;14.71;65.03;97963.81;5029654;28;20201;-83
2023/10/03 02:58:45;;;;;;;26.83;6.90;;;;;;;14.94;63.98;97973.97;5029328;28;20206;-80
2023/10/03 03:01:13;;;;;;;11.63;4.80;;;;;;;14.93;64.00;97974.06;5029396;28;20288;-82
2023/10/03 03:03:42;;;;;;;7.10;4.47;;;;;;;14.85;64.07;97973.56;5028953;28;20191;-84
2023/10/03 03:06:12;;;;;;;10.50;4.73;;;;;;;14.79;64.41;97979.94;5029257;28;20193;-83
2023/10/03 03:08:40;;;;;;;10.53;5.30;;;;;;;14.70;64.41;97980.34;5029355;28;20264;-83
2023/10/03 03:11:11;;;;;;;9.47;5.20;;;;;;;14.21;65.86;97965.28;5027602;28;20194;-83
2023/10/03 03:16:49;;;;;;;12.13;6.73;;;;;;;13.59;67.85;97968.03;5041460;28;20202;-83
2023/10/03 03:19:16;;;;;;;11.87;6.93;;;;;;;13.14;69.60;97963.00;5048823;28;20208;-81
2023/10/03 03:21:44;;;;;;;12.10;8.23;;;;;;;12.83;71.48;97963.38;5031417;28;20209;-83
2023/10/03 03:24:21;;;;;;;13.93;7.43;;;;;;;12.99;70.67;97972.25;5030266;28;20237;-82
2023/10/03 03:26:48;;;;;;;12.10;7.63;;;;;;;13.38;70.05;97963.75;5029997;28;20642;-81
2023/10/03 03:29:21;;;;;;;13.27;7.17;;;;;;;13.70;69.15;97966.66;5029392;28;20210;-81
2023/10/03 03:31:50;;;;;;;14.63;6.83;;;;;;;13.65;68.46;97958.22;5033992;28;20198;-77
2023/10/03 03:34:20;;;;;;;12.33;7.10;;;;;;;13.72;68.44;97966.59;5046409;28;20293;-77
2023/10/03 03:36:49;;;;;;;15.47;7.30;;;;;;;13.65;67.99;97963.41;5047432;28;20300;-78
2023/10/03 03:39:20;;;;;;;13.60;7.87;;;;;;;13.71;67.81;97970.97;5049136;28;20243;-80
2023/10/03 03:41:49;;;;;;;16.03;7.57;;;;;;;13.98;67.47;97971.50;5046903;28;20202;-79
2023/10/03 03:44:18;;;;;;;10.00;6.90;;;;;;;13.88;66.65;97967.63;5049411;28;20702;-78
2023/10/03 03:46:46;;;;;;;12.03;7.13;;;;;;;13.52;68.31;97964.00;5048233;28;20228;-77
2023/10/03 03:49:13;;;;;;;7.83;6.33;;;;;;;13.24;69.08;97955.66;5048421;28;20999;-80
2023/10/03 03:51:40;;;;;;;14.23;7.13;;;;;;;13.03;69.68;97954.75;5043387;28;20277;-78
2023/10/03 03:54:09;;;;;;;12.17;6.77;;;;;;;13.32;68.13;97959.66;5046010;28;20208;-81
2023/10/03 03:56:36;;;;;;;10.70;6.90;;;;;;;13.72;67.51;97962.22;5047793;28;20204;-83
2023/10/03 03:59:03;;;;;;;13.03;6.27;;;;;;;13.86;66.02;97972.06;5046638;28;20192;-80
2023/10/03 04:01:33;;;;;;;9.87;6.47;;;;;;;13.69;65.91;97946.75;5047804;28;20198;-78
2023/10/03 04:04:01;;;;;;;12.23;6.73;;;;;;;13.79;66.56;97960.19;5046878;28;20375;-77
2023/10/03 04:06:29;;;;;;;15.63;6.77;;;;;;;13.70;67.01;97958.03;5046387;28;20203;-82
2023/10/03 04:08:56;;;;;;;8.60;5.87;;;;;;;13.68;67.71;97957.25;5047769;28;20255;-80
2023/10/03 04:11:35;;;;;;;14.13;6.93;;;;;;;13.67;66.96;97958.13;5045750;28;20192;-82
2023/10/03 04:14:05;;;;;;;11.27;6.40;;;;;;;13.27;68.00;97956.38;5048302;28;20692;-87
2023/10/03 04:16:43;;;;;;;13.27;6.70;;;;;;;12.85;70.11;97966.78;5042656;28;20644;-79
2023/10/03 04:19:12;;;;;;;14.00;7.00;;;;;;;12.70;69.70;97956.97;5038776;28;20684;-78
2023/10/03 04:21:42;;;;;;;7.93;6.30;;;;;;;12.69;70.11;97957.88;5027236;28;20217;-81
2023/10/03 04:24:11;;;;;;;10.60;6.60;;;;;;;12.77;69.73;97963.63;5027372;28;20200;-84
2023/10/03 04:26:42;;;;;;;10.97;7.27;;;;;;;12.94;69.41;97968.97;5029098;28;20202;-83
2023/10/03 04:29:13;;;;;;;13.83;7.40;;;;;;;12.84;70.34;97965.06;5036177;28;20569;-80
2023/10/03 04:31:44;;;;;;;9.90;6.77;;;;;;;12.83;69.98;97963.38;5048917;28;20187;-79
2023/10/03 04:34:13;;;;;;;10.73;7.23;;;;;;;12.86;69.95;97971.03;5047864;28;20297;-84
2023/10/03 04:36:42;;;;;;;11.97;7.30;;;;;;;13.25;69.15;97970.38;5047835;28;20716;-75
2023/10/03 04:39:11;;;;;;;13.07;6.53;;;;;;;13.09;67.29;97912.94;5046925;28;20197;-77
2023/10/03 04:41:43;;;;;;;15.77;6.83;;;;;;;13.48;66.94;97976.28;5044109;28;20193;-76
2023/10/03 04:44:16;;;;;;;12.87;6.83;;;;;;;13.69;66.53;97978.00;5046489;28;20223;-74
2023/10/03 04:46:48;;;;;;;16.33;6.57;;;;;;;13.75;66.42;97979.47;5045060;28;20199;-77
2023/10/03 04:49:15;;;;;;;12.57;7.57;;;;;;;13.87;66.72;97989.34;5048606;28;20192;-74
2023/10/03 04:51:47;;;;;;;17.33;6.97;;;;;;;13.97;65.63;97975.03;5048663;28;20200;-75
2023/10/03 04:54:16;;;;;;;11.83;6.40;;;;;;;14.37;64.77;97977.56;5039867;28;20284;-76
2023/10/03 04:56:44;;;;;;;20.70;8.23;;;;;;;14.16;64.68;97983.72;5029938;28;20228;-78
2023/10/03 04:59:12;;;;;;;16.33;6.60;;;;;;;13.98;65.99;97987.13;5036501;28;20249;-76
2023/10/03 05:01:39;;;;;;;11.13;6.30;;;;;;;13.64;66.00;97929.66;5051152;28;20717;-77
2023/10/03 05:04:06;;;;;;;21.47;7.20;;;;;;;14.18;66.34;97988.88;5049690;28;20225;-72
2023/10/03 05:06:35;;;;;;;13.60;7.17;;;;;;;14.30;65.00;97981.34;5049358;28;20229;-72
2023/10/03 05:09:04;;;;;;;13.57;6.87;;;;;;;14.24;65.09;97979.00;5051115;28;20193;-80
2023/10/03 05:11:32;;;;;;;12.83;7.57;;;;;;;14.30;65.35;97983.97;5052300;28;20200;-75
2023/10/03 05:14:00;;;;;;;14.23;6.60;;;;;;;14.45;65.63;97983.25;5052974;28;20677;-80
2023/10/03 05:16:29;;;;;;;16.60;6.80;;;;;;;14.69;65.13;97994.34;5048788;28;20193;-79
2023/10/03 05:18:56;;;;;;;15.93;6.80;;;;;;;14.64;65.01;97981.50;5047662;28;20324;-76
2023/10/03 05:21:23;;;;;;;13.13;5.60;;;;;;;14.50;65.19;97996.94;5046701;28;20202;-74
2023/10/03 05:23:52;;;;;;;10.77;5.97;;;;;;;14.27;66.00;97989.28;5047597;28;20197;-76
2023/10/03 05:26:19;;;;;;;12.20;6.43;;;;;;;14.31;65.41;98006.50;5047184;28;20233;-77
2023/10/03 05:28:47;;;;;;;13.87;6.67;;;;;;;14.01;66.24;98007.84;5046612;28;20200;-77
2023/10/03 05:31:15;;;;;;;15.83;6.97;;;;;;;13.88;66.84;97998.88;5047868;28;20212;-73
2023/10/03 05:33:42;;;;;;;11.60;6.23;;;;;;;13.99;67.70;98014.88;5045645;28;20697;-79
2023/10/03 05:36:18;;;;;;;13.80;7.10;;;;;;;13.94;68.17;98009.00;5047759;28;20220;-79
2023/10/03 05:38:46;;;;;;;14.67;6.10;;;;;;;14.17;67.75;98006.25;5045265;28;20236;-84
2023/10/03 05:41:21;;;;;;;12.97;6.17;;;;;;;14.30;66.70;97981.34;5025828;28;20587;-79
2023/10/03 05:43:49;;;;;;;11.97;6.47;;;;;;;14.50;66.32;98007.38;5027234;28;20202;-74
2023/10/03 05:46:16;;;;;;;11.03;6.03;;;;;;;14.47;66.93;98017.91;5026758;28;20254;-79
2023/10/03 05:48:44;;;;;;;10.03;5.53;;;;;;;14.24;67.62;98018.06;5028463;28;20238;-76
2023/10/03 05:51:12;;;;;;;15.33;6.93;;;;;;;14.08;67.70;98019.66;5025787;28;20653;-74
2023/10/03 05:53:42;;;;;;;14.07;6.47;;;;;;;14.16;67.35;98029.75;5027566;28;20209;-77
2023/10/03 05:56:10;;;;;;;13.57;6.50;;;;;;;14.55;66.34;98026.22;5029339;28;20197;-74
2023/10/03 05:58:37;;;;;;;9.87;5.53;;;;;;;14.80;65.02;98017.25;5029800;28;20201;-73
2023/10/03 06:01:05;;;;;;;11.73;6.47;;;;;;;14.67;65.20;97997.00;5048307;28;20292;-85
2023/10/03 06:03:32;;;;;;;10.67;5.63;;;;;;;14.84;65.11;98026.66;5045928;28;20704;-80
2023/10/03 06:06:00;;;;;;;12.20;6.33;;;;;;;14.58;65.46;98023.50;5029090;28;20225;-82
2023/10/03 06:08:27;;;;;;;7.93;5.70;;;;;;;14.54;65.78;98029.78;5045339;28;20284;-80
2023/10/03 06:10:57;;;;;;;16.23;6.13;;;;;;;14.69;66.14;98036.88;5047275;28;20198;-83
2023/10/03 06:13:25;;;;;;;10.77;6.30;;;;;;;14.97;65.06;98027.75;5046087;28;20243;-77
2023/10/03 06:15:52;;;;;;;12.17;5.90;;;;;;;15.06;64.79;98022.13;5030170;28;20197;-75
2023/10/03 06:18:19;;;;;;;11.77;5.90;;;;;;;15.26;64.29;98033.28;5025678;28;20226;-80
2023/10/03 06:20:48;;;;;;;11.03;6.03;;;;;;;15.73;63.46;98046.63;5024699;28;20221;-80
2023/10/03 06:23:15;;;;;;;12.13;6.33;;;;;;;15.83;62.65;98040.00;5026563;28;20203;-85
2023/10/03 06:25:43;;;;;;;19.67;5.70;;;;;;;15.83;62.96;98034.78;5040565;28;20806;-82
2023/10/03 06:28:11;;;;;;;15.67;6.70;;;;;;;16.32;61.85;98030.50;5048178;28;20201;-84
2023/10/03 06:30:38;;;;;;;12.00;6.57;;;;;;;16.56;60.95;98030.97;5034002;28;20208;-80
2023/10/03 06:33:07;;;;;;;16.43;6.27;;;;;;;16.66;59.72;98001.63;5037682;28;20189;-75
2023/10/03 06:35:35;;;;;;;14.83;6.37;;;;;;;16.97;59.03;98030.44;5050833;28;20202;-79
2023/10/03 06:38:03;;;;;;;10.83;5.83;;;;;;;16.89;59.08;98011.69;5047930;28;20209;-83
2023/10/03 06:40:30;;;;;;;18.93;5.57;;;;;;;16.99;59.10;98027.72;5038562;28;20199;-77
2023/10/03 06:42:58;;;;;;;8.43;5.27;;;;;;;17.20;58.35;98026.53;5028943;28;20713;-84
2023/10/03 06:45:25;;;;;;;14.97;6.30;;;;;;;17.49;57.68;98022.25;5030687;28;20216;-82
2023/10/03 06:47:54;;;;;;;10.63;5.07;;;;;;;17.42;57.29;98028.75;5028827;28;20222;-88
2023/10/03 06:50:23;;;;;;;8.67;5.10;;;;;;;17.52;56.83;98037.78;5023242;28;20198;-81
2023/10/03 06:52:52;;;;;;;11.40;5.87;;;;;;;17.75;55.95;98032.94;5049317;28;20206;-81
2023/10/03 06:55:19;;;;;;;17.10;6.03;;;;;;;17.98;55.85;98028.09;5049700;28;20667;-78
2023/10/03 06:57:46;;;;;;;11.90;5.73;;;;;;;18.28;54.90;98045.44;5051379;28;20654;-78
2023/10/03 07:00:16;;;;;;;14.60;5.60;;;;;;;18.34;54.69;98046.88;5052532;28;20205;-75
2023/10/03 07:02:44;;;;;;;12.07;5.90;;;;;;;18.11;55.15;98036.94;5056903;28;20297;-72
2023/10/03 07:05:11;;;;;;;10.63;5.17;;;;;;;18.16;55.52;98037.47;5054052;28;20223;-78
2023/10/03 07:07:39;;;;;;;11.90;6.37;;;;;;;18.29;54.63;98035.81;5053508;28;20206;-78
2023/10/03 07:10:07;;;;;;;11.40;5.37;;;;;;;18.25;54.68;98034.31;5053172;28;20200;-74
2023/10/03 07:12:34;;;;;;;10.03;6.13;;;;;;;18.41;54.14;98043.78;5034876;28;20325;-79
2023/10/03 07:15:01;;;;;;;11.33;5.77;;;;;;;18.43;53.48;98043.69;5051877;28;20204;-78
2023/10/03 07:17:30;;;;;;;10.93;6.17;;;;;;;18.53;53.43;98031.72;5049160;28;20326;-74
2023/10/03 07:19:58;;;;;;;8.57;5.10;;;;;;;18.76;53.01;98039.00;5050016;28;20295;-86
2023/10/03 07:22:25;;;;;;;10.70;5.40;;;;;;;18.84;52.98;98044.63;5047868;28;20205;-79
2023/10/03 07:25:28;;;;;;;11.80;4.97;;;;;;;18.70;53.73;98044.63;5045169;28;20206;-81
2023/10/03 07:27:55;;;;;;;17.97;6.20;;;;;;;19.14;52.14;98034.81;5060083;28;20213;-75
2023/10/03 07:30:22;;;;;;;9.40;4.93;;;;;;;19.10;51.35;98025.41;5037987;28;20274;-81
2023/10/03 07:32:49;;;;;;;11.77;4.63;;;;;;;19.27;50.75;98047.97;5048897;28;20209;-75
2023/10/03 07:35:19;;;;;;;13.40;5.17;;;;;;;19.10;50.81;98035.09;5046495;28;20197;-74
2023/10/03 07:37:46;;;;;;;11.83;4.60;;;;;;;19.12;51.50;98017.47;5049021;28;20252;-78
2023/10/03 07:40:13;;;;;;;8.33;4.93;;;;;;;19.41;51.62;98038.28;5043045;28;20358;-74
2023/10/03 07:42:40;;;;;;;8.43;4.80;;;;;;;19.42;50.58;98028.63;5051100;28;20204;-71
2023/10/03 07:45:08;;;;;;;12.90;4.97;;;;;;;19.76;50.22;98040.41;5050133;28;20190;-77
2023/10/03 07:47:41;;;;;;;12.63;4.97;;;;;;;19.97;50.54;98042.41;5045856;28;20292;-73
2023/10/03 07:50:11;;;;;;;10.77;4.43;;;;;;;20.11;49.56;98037.06;5048606;28;20715;-73
2023/10/03 07:52:41;;;;;;;9.07;4.20;;;;;;;19.93;49.74;98032.19;5047137;28;20197;-76
2023/10/03 07:55:48;;;;;;;12.53;5.03;;;;;;;20.16;49.03;98032.34;5046247;28;20639;-75
2023/10/03 07:58:32;;;;;;;11.87;5.37;;;;;;;20.48;48.92;98030.16;5033292;28;20217;-75
2023/10/03 08:01:00;;;;;;;10.73;5.13;;;;;;;20.63;48.51;98028.25;5046585;28;20251;-74
2023/10/03 08:03:28;;;;;;;9.77;5.03;;;;;;;20.72;47.71;98022.31;5047482;28;20194;-74
2023/10/03 08:05:57;;;;;;;9.43;4.57;;;;;;;20.69;47.21;98035.72;5045999;28;20225;-75
2023/10/03 08:08:27;;;;;;;11.27;4.70;;;;;;;20.86;47.11;98027.44;5048811;28;20201;-73
2023/10/03 08:10:56;;;;;;;12.50;4.40;;;;;;;21.00;46.32;98027.28;5048400;28;20205;-73
2023/10/03 08:13:23;;;;;;;7.57;4.03;;;;;;;21.05;46.42;98030.50;5046844;28;20220;-75
2023/10/03 08:15:50;;;;;;;10.07;5.00;;;;;;;21.17;46.04;98020.84;5048236;28;20256;-72
2023/10/03 08:18:18;;;;;;;9.87;4.70;;;;;;;21.41;45.75;98035.72;5046089;28;20238;-71
2023/10/03 08:20:53;;;;;;;12.13;5.03;;;;;;;21.41;45.34;98027.81;5047465;28;20190;-70
2023/10/03 08:23:21;;;;;;;12.53;4.50;;;;;;;21.36;45.30;98034.38;5046886;28;20225;-72
2023/10/03 08:25:48;;;;;;;10.23;5.53;;;;;;;21.42;46.52;98040.03;5045243;28;20319;-74
2023/10/03 08:28:20;;;;;;;6.77;4.40;;;;;;;21.34;45.11;98028.38;5047805;28;20196;-72
2023/10/03 08:30:50;;;;;;;10.83;5.30;;;;;;;21.23;46.16;98031.78;5045651;28;20221;-72
2023/10/03 08:33:19;;;;;;;11.33;5.20;;;;;;;21.21;45.32;98007.34;5047608;28;20289;-73
2023/10/03 08:35:48;;;;;;;7.87;4.53;;;;;;;21.08;45.61;98007.41;5044043;28;20237;-73
2023/10/03 08:38:15;;;;;;;14.10;5.10;;;;;;;21.33;45.89;98027.53;5047340;28;20309;-72
2023/10/03 08:40:49;;;;;;;11.30;4.80;;;;;;;21.54;45.39;98020.69;5047287;28;20742;-73
2023/10/03 08:43:25;;;;;;;12.40;5.17;;;;;;;21.60;44.09;98025.50;5046705;28;20267;-72
2023/10/03 08:45:57;;;;;;;9.67;4.80;;;;;;;21.46;43.67;98019.56;5046917;28;20599;-77
2023/10/03 08:48:29;;;;;;;12.80;5.10;;;;;;;21.48;44.22;97999.19;5045787;28;20195;-73
2023/10/03 08:50:58;;;;;;;8.47;4.60;;;;;;;21.77;44.14;98021.59;5045367;28;20218;-72
2023/10/03 08:53:29;;;;;;;11.00;5.37;;;;;;;21.30;44.58;97963.69;5046337;28;20230;-73
2023/10/03 08:56:03;;;;;;;10.00;5.03;;;;;;;21.33;44.08;98018.81;5046060;28;20214;-73
2023/10/03 08:58:31;;;;;;;15.23;5.80;;;;;;;21.58;44.61;98023.91;5047984;28;20305;-75
2023/10/03 09:00:58;;;;;;;10.10;5.00;;;;;;;21.82;44.14;98016.88;5045982;28;20214;-73
2023/10/03 09:03:46;;;;;;;8.07;4.97;;;;;;;21.97;44.09;98013.06;5046090;28;20200;-72
2023/10/03 09:06:23;;;;;;;16.57;7.10;;;;;;;22.16;42.69;98018.63;5046394;28;20232;-76
2023/10/03 09:09:07;;;;;;;14.13;5.23;;;;;;;22.14;42.30;97999.41;5050208;28;20238;-77
2023/10/03 09:11:39;;;;;;;17.37;5.80;;;;;;;22.06;42.75;98016.78;5047580;28;20626;-76
2023/10/03 09:14:08;;;;;;;10.63;4.47;;;;;;;22.17;42.11;98020.31;5046583;28;20672;-72
2023/10/03 09:16:38;;;;;;;11.60;4.60;;;;;;;22.20;42.62;98017.41;5045570;28;20226;-79
2023/10/03 09:19:23;;;;;;;9.00;5.23;;;;;;;22.30;42.23;98026.31;5045991;28;20207;-72
2023/10/03 09:21:51;;;;;;;10.53;4.93;;;;;;;22.23;41.67;98017.19;5049786;28;20666;-75
2023/10/03 09:24:21;;;;;;;11.87;5.10;;;;;;;22.30;41.54;98021.03;5045333;28;20249;-71
2023/10/03 09:26:57;;;;;;;13.47;6.10;;;;;;;22.58;42.26;98017.97;5045349;28;20244;-74
2023/10/03 09:29:30;;;;;;;16.30;8.60;;;;;;;22.29;41.75;98002.69;5045296;28;20227;-77
2023/10/03 09:32:12;;;;;;;7.93;4.20;;;;;;;22.34;41.68;98005.81;5044924;28;20206;-75
2023/10/03 09:34:42;;;;;;;10.87;5.30;;;;;;;22.25;41.13;98007.34;5046490;28;20215;-73
2023/10/03 09:37:10;;;;;;;48.43;27.10;;;;;;;21.98;42.05;98003.34;5027753;28;20207;-81
2023/10/03 09:39:48;;;;;;;11.23;6.63;;;;;;;21.73;43.38;98004.31;5045726;28;20640;-77
2023/10/03 09:42:18;;;;;;;8.80;4.50;;;;;;;21.61;42.79;97989.44;5047111;28;20269;-72
2023/10/03 09:44:48;;;;;;;10.90;6.27;;;;;;;21.44;42.68;97987.22;5044586;28;20306;-73
2023/10/03 09:47:19;;;;;;;11.83;5.00;;;;;;;21.88;42.49;97997.94;5046276;28;20228;-74
2023/10/03 09:49:47;;;;;;;9.47;5.17;;;;;;;22.21;42.09;97999.78;5044754;28;20277;-76
2023/10/03 09:52:22;;;;;;;11.17;5.17;;;;;;;22.54;41.74;97987.47;5046299;28;20245;-76
2023/10/03 09:54:54;;;;;;;11.43;5.93;;;;;;;22.82;40.91;97988.75;5045141;28;20195;-72
2023/10/03 09:57:23;;;;;;;14.43;5.37;;;;;;;22.96;40.06;97985.00;5044538;28;20182;-76
2023/10/03 09:59:50;;;;;;;11.03;4.93;;;;;;;22.97;40.55;97991.97;5028219;28;20195;-74
2023/10/03 10:02:47;;;;;;;14.03;6.00;;;;;;;23.10;40.21;97984.75;5044921;28;20202;-73
2023/10/03 10:05:20;;;;;;;10.27;5.43;;;;;;;23.11;39.97;97970.56;5048728;28;20199;-73
2023/10/03 10:08:17;;;;;;;35.57;8.63;;;;;;;23.28;40.46;97986.75;5050844;28;20800;-77
2023/10/03 10:11:09;;;;;;;11.23;5.43;;;;;;;23.01;39.40;97974.91;5048569;28;20209;-72
2023/10/03 10:13:41;;;;;;;12.43;6.33;;;;;;;22.54;40.11;97958.41;5049765;28;20210;-73
2023/10/03 10:18:44;;;;;;;10.90;5.73;;;;;;;23.02;40.21;97963.41;5049148;28;20223;-75
2023/10/03 10:21:24;;;;;;;10.23;5.53;;;;;;;23.12;39.34;97972.25;5050286;28;20241;-76
2023/10/03 10:24:15;;;;;;;11.10;4.57;;;;;;;23.18;39.13;97961.19;5049790;28;20205;-76
2023/10/03 10:26:52;;;;;;;8.10;4.77;;;;;;;23.19;38.84;97958.41;5052352;28;20247;-76
2023/10/03 10:29:24;;;;;;;12.73;5.00;;;;;;;23.10;38.94;97919.50;5056149;28;20283;-75
2023/10/03 10:31:58;;;;;;;10.37;5.10;;;;;;;23.28;38.20;97936.50;5054288;28;20581;-76
2023/10/03 10:34:27;;;;;;;8.43;4.50;;;;;;;23.03;38.47;97951.84;5055204;28;20200;-72
2023/10/03 10:37:10;;;;;;;10.20;4.33;;;;;;;23.09;38.82;97940.78;5049558;28;20628;-74
2023/10/03 10:39:57;;;;;;;12.40;5.43;;;;;;;23.28;38.74;97936.50;5049002;28;20280;-75
2023/10/03 10:42:26;;;;;;;12.67;5.17;;;;;;;23.42;38.53;97925.66;5050655;28;20205;-76
2023/10/03 10:45:15;;;;;;;9.37;4.50;;;;;;;23.61;38.08;97929.41;5049027;28;20197;-73
2023/10/03 10:47:48;;;;;;;10.63;4.90;;;;;;;23.72;37.70;97927.53;5049240;28;20564;-73
2023/10/03 10:50:17;;;;;;;12.23;5.40;;;;;;;23.84;37.64;97926.50;5048526;28;20248;-75
2023/10/03 10:53:02;;;;;;;10.40;5.13;;;;;;;23.56;37.76;97931.59;5046844;28;20251;-75
2023/10/03 10:55:32;;;;;;;8.73;4.50;;;;;;;23.41;38.11;97896.72;5045990;28;20199;-73
2023/10/03 10:58:03;;;;;;;8.87;5.27;;;;;;;23.68;37.92;97918.16;5049331;28;20228;-75
2023/10/03 11:00:33;;;;;;;12.37;5.03;;;;;;;23.86;37.67;97915.78;5046843;28;20612;-76
2023/10/03 11:03:03;;;;;;;9.33;4.40;;;;;;;23.51;37.82;97900.25;5047358;28;20294;-77
2023/10/03 11:05:47;;;;;;;11.57;5.30;;;;;;;23.58;37.17;97908.50;5031490;28;20204;-72
2023/10/03 11:08:17;;;;;;;9.27;4.80;;;;;;;23.50;37.61;97909.13;5050084;28;20202;-74
2023/10/03 11:10:52;;;;;;;7.13;4.63;;;;;;;23.53;38.25;97898.31;5050842;28;20267;-75
2023/10/03 11:13:21;;;;;;;11.80;4.93;;;;;;;23.42;38.34;97891.28;5054112;28;20249;-80
2023/10/03 11:15:52;;;;;;;12.23;5.17;;;;;;;23.35;38.47;97897.19;5050528;28;20298;-77
2023/10/03 11:18:30;;;;;;;10.90;4.80;;;;;;;23.17;38.82;97896.06;5050819;28;20229;-75
2023/10/03 11:20:59;;;;;;;8.33;4.70;;;;;;;23.01;38.49;97896.50;5029513;28;20198;-75
2023/10/03 11:23:27;;;;;;;10.47;5.30;;;;;;;23.02;38.64;97873.56;5012286;28;20228;-74
2023/10/03 11:25:57;;;;;;;14.60;5.90;;;;;;;23.36;38.49;97886.50;5030977;28;20225;-79
2023/10/03 11:28:29;;;;;;;14.30;5.70;;;;;;;23.55;37.89;97864.66;5028563;28;20602;-73
2023/10/03 11:31:01;;;;;;;12.07;5.47;;;;;;;23.74;37.65;97877.97;5028628;28;20713;-77
2023/10/03 11:33:41;;;;;;;13.97;5.00;;;;;;;23.87;37.23;97872.47;5027829;28;20230;-81
2023/10/03 11:36:08;;;;;;;11.47;5.20;;;;;;;23.81;37.14;97873.84;5028964;28;20231;-74
2023/10/03 11:38:46;;;;;;;10.27;4.97;;;;;;;23.94;37.61;97877.13;5027126;28;20211;-75
2023/10/03 11:41:31;;;;;;;14.97;5.60;;;;;;;23.96;36.96;97872.53;5028599;28;20202;-81
2023/10/03 11:44:00;;;;;;;9.30;5.50;;;;;;;23.98;37.15;97862.66;5029346;28;20215;-73
2023/10/03 11:46:38;;;;;;;8.03;4.70;;;;;;;23.97;36.88;97860.09;5027004;28;20257;-83
2023/10/03 11:49:08;;;;;;;9.70;4.40;;;;;;;23.61;37.28;97863.28;5029038;28;20280;-74
2023/10/03 11:51:42;;;;;;;9.63;4.90;;;;;;;23.58;37.92;97859.09;5028921;28;20223;-78
2023/10/03 11:54:11;;;;;;;13.77;5.10;;;;;;;23.78;37.04;97866.16;5028737;28;20259;-75
2023/10/03 11:56:45;;;;;;;7.47;5.03;;;;;;;23.91;37.33;97850.91;5028898;28;20213;-73
2023/10/03 11:59:14;;;;;;;9.50;5.30;;;;;;;24.00;36.74;97844.81;5027091;28;20287;-73